Time;durP1;ratioP1;P1;durP2;ratioP2;P2;SDS_P1;SDS_P2;PMS_P1;PMS_P2;Temp;Humidity;BMP_temperature;BMP_pressure;BME280_temperature;BME280_humidity;BME280_pressure;Samples;Min_cycle;Max_cycle;Signal;HPM_P1;HPM_P2
2022/07/12 00:00:22;;;;;;;1.58;1.50;;;;;;;14.13;60.80;63460.22;5065271;28;20288;-76
2022/07/12 00:02:51;;;;;;;1.80;1.70;;;;;;;14.03;61.69;63445.22;5080492;28;20200;-75
2022/07/12 00:05:17;;;;;;;2.00;1.80;;;;;;;13.98;61.96;63440.03;5088464;28;20497;-75
2022/07/12 00:07:44;;;;;;;1.65;1.55;;;;;;;13.92;62.42;63436.38;5076977;28;20214;-74
2022/07/12 00:10:11;;;;;;;4.53;1.73;;;;;;;13.82;63.54;63431.13;5070905;28;20250;-76
2022/07/12 00:12:39;;;;;;;1.98;1.88;;;;;;;13.66;64.44;63412.47;5089654;28;20225;-76
2022/07/12 00:15:07;;;;;;;2.45;2.10;;;;;;;13.52;66.54;63394.84;5087705;28;20490;-75
2022/07/12 00:17:34;;;;;;;2.05;1.95;;;;;;;13.43;66.59;63388.06;5070418;28;20292;-75
2022/07/12 00:20:02;;;;;;;1.90;1.55;;;;;;;13.34;66.95;63374.13;5078596;28;20213;-75
2022/07/12 00:22:29;;;;;;;3.55;2.13;;;;;;;13.31;67.14;63378.19;5088155;28;20213;-76
2022/07/12 00:24:56;;;;;;;2.20;2.10;;;;;;;13.29;66.79;63368.44;5083728;28;20209;-75
2022/07/12 00:27:23;;;;;;;2.20;1.80;;;;;;;13.29;65.85;63368.44;5087244;28;20540;-76
2022/07/12 00:29:50;;;;;;;2.75;1.63;;;;;;;13.29;64.44;63373.53;5086292;28;20197;-76
2022/07/12 00:32:17;;;;;;;1.10;1.10;;;;;;;13.34;64.32;63376.69;5070503;28;20398;-76
2022/07/12 00:34:44;;;;;;;1.75;1.50;;;;;;;13.37;64.92;63377.25;5078416;28;20201;-76
2022/07/12 00:37:12;;;;;;;2.33;1.45;;;;;;;13.41;65.63;63386.53;5084572;28;20555;-76
2022/07/12 00:39:39;;;;;;;3.30;1.50;;;;;;;13.43;65.21;63393.19;5085715;28;20211;-77
2022/07/12 00:42:06;;;;;;;1.52;1.42;;;;;;;13.43;64.26;63382.97;5087113;28;20231;-76
2022/07/12 00:44:34;;;;;;;1.30;1.20;;;;;;;13.48;63.98;63388.16;5079114;28;20205;-76
2022/07/12 00:47:02;;;;;;;1.95;1.85;;;;;;;13.43;62.99;63383.47;5083584;28;20529;-77
2022/07/12 00:49:31;;;;;;;2.60;1.23;;;;;;;13.57;62.76;63400.56;5085594;28;20205;-76
2022/07/12 00:51:58;;;;;;;1.77;1.58;;;;;;;13.61;62.31;63407.28;5083188;28;20251;-77
2022/07/12 00:54:26;;;;;;;3.83;1.70;;;;;;;13.67;62.01;63410.94;5081975;28;20215;-77
2022/07/12 00:56:53;;;;;;;2.10;1.58;;;;;;;13.68;61.98;63414.03;5085511;28;20567;-77
2022/07/12 00:59:20;;;;;;;4.85;1.88;;;;;;;13.76;62.13;63424.88;5086703;28;20197;-76
2022/07/12 01:01:47;;;;;;;2.47;1.88;;;;;;;13.78;61.90;63422.38;5083731;28;20240;-76
2022/07/12 01:04:18;;;;;;;1.23;1.23;;;;;;;13.87;61.29;63433.75;5086818;28;20196;-76
2022/07/12 01:06:45;;;;;;;3.72;1.20;;;;;;;13.93;60.85;63434.84;5087772;28;20292;-76
2022/07/12 01:09:12;;;;;;;2.70;1.52;;;;;;;14.04;60.73;63450.88;5089757;28;20235;-76
2022/07/12 01:11:40;;;;;;;1.95;1.17;;;;;;;14.13;60.51;63455.09;5083783;28;20228;-76
2022/07/12 01:14:08;;;;;;;1.20;1.20;;;;;;;14.18;59.71;63468.50;5084499;28;20201;-76
2022/07/12 01:16:35;;;;;;;1.38;1.27;;;;;;;14.14;60.06;63458.69;5086119;28;20240;-76
2022/07/12 01:19:04;;;;;;;4.43;1.70;;;;;;;14.19;59.97;63464.41;5085657;28;20260;-76
2022/07/12 01:21:34;;;;;;;1.48;1.48;;;;;;;14.21;59.67;63466.50;5080545;28;20404;-76
2022/07/12 01:24:03;;;;;;;2.05;1.70;;;;;;;14.26;59.74;63473.72;5070066;28;20212;-76
2022/07/12 01:26:30;;;;;;;1.98;1.30;;;;;;;14.24;59.83;63467.03;5085891;28;20535;-76
2022/07/12 01:28:59;;;;;;;1.30;1.30;;;;;;;14.20;59.81;63470.56;5082999;28;20205;-75
2022/07/12 01:31:26;;;;;;;1.70;1.60;;;;;;;14.24;59.97;63472.16;5074895;28;20228;-76
2022/07/12 01:33:53;;;;;;;1.48;1.38;;;;;;;14.25;59.83;63472.69;5085254;28;20197;-76
2022/07/12 01:36:20;;;;;;;1.60;1.20;;;;;;;14.25;59.73;63475.25;5085467;28;20216;-76
2022/07/12 01:38:47;;;;;;;1.17;1.15;;;;;;;14.31;59.78;63481.47;5080050;28;20208;-76
2022/07/12 01:41:17;;;;;;;4.97;1.55;;;;;;;14.33;60.97;63481.53;5085876;28;20212;-77
2022/07/12 01:43:44;;;;;;;1.55;1.45;;;;;;;14.20;61.47;63470.06;5070776;28;20196;-76
2022/07/12 01:46:10;;;;;;;1.30;1.30;;;;;;;14.17;61.70;63462.31;5087663;28;20236;-76
2022/07/12 01:48:37;;;;;;;1.98;1.75;;;;;;;14.08;62.65;63452.47;5081971;28;20204;-76
2022/07/12 01:51:05;;;;;;;1.95;1.70;;;;;;;13.98;63.34;63444.66;5084754;28;20271;-76
2022/07/12 01:53:32;;;;;;;1.95;1.58;;;;;;;13.94;63.71;63436.41;5084583;28;20222;-76
2022/07/12 01:55:59;;;;;;;2.00;1.90;;;;;;;13.93;63.74;63437.94;5081510;28;20216;-76
2022/07/12 01:58:27;;;;;;;1.70;1.52;;;;;;;13.85;64.91;63432.19;5084515;28;20193;-76
2022/07/12 02:00:55;;;;;;;4.85;1.88;;;;;;;13.76;65.33;63424.88;5089430;28;20221;-75
2022/07/12 02:03:22;;;;;;;2.83;1.75;;;;;;;13.71;65.48;63412.53;5087249;28;20196;-76
2022/07/12 02:05:49;;;;;;;3.60;1.58;;;;;;;13.64;65.56;63407.84;5087468;28;20233;-76
2022/07/12 02:08:16;;;;;;;1.70;1.20;;;;;;;13.59;65.87;63400.09;5088964;28;20224;-76
2022/07/12 02:10:44;;;;;;;2.13;1.73;;;;;;;13.58;67.38;63398.53;5087310;28;20244;-74
2022/07/12 02:13:11;;;;;;;1.73;1.70;;;;;;;13.49;67.42;63394.31;5090542;28;20260;-76
2022/07/12 02:15:39;;;;;;;1.67;1.58;;;;;;;13.42;69.12;63387.03;5087379;28;20212;-75
2022/07/12 02:18:06;;;;;;;1.63;1.52;;;;;;;13.31;69.57;63378.19;5088191;28;20193;-76
2022/07/12 02:20:33;;;;;;;2.42;2.00;;;;;;;13.16;72.98;63365.19;5087242;28;20285;-75
2022/07/12 02:23:00;;;;;;;2.67;1.83;;;;;;;13.12;73.99;63348.75;5084287;28;20197;-76
2022/07/12 02:25:27;;;;;;;2.20;1.40;;;;;;;13.08;74.04;63352.28;5077128;28;20220;-76
2022/07/12 02:27:54;;;;;;;2.42;2.00;;;;;;;13.01;74.36;63342.44;5084610;28;20328;-76
2022/07/12 02:30:21;;;;;;;3.60;2.28;;;;;;;12.97;74.40;63337.78;5083899;28;20465;-74
2022/07/12 02:32:50;;;;;;;2.38;2.28;;;;;;;12.91;75.54;63334.63;5084423;28;20229;-76
2022/07/12 02:35:16;;;;;;;3.40;2.33;;;;;;;12.87;77.39;63327.94;5084124;28;20268;-76
2022/07/12 02:37:43;;;;;;;2.63;2.30;;;;;;;12.77;77.77;63320.09;5084541;28;20206;-76
2022/07/12 02:42:55;;;;;;;2.35;2.13;;;;;;;12.62;77.58;63299.44;5084547;28;20199;-76
2022/07/12 02:45:22;;;;;;;2.33;2.22;;;;;;;12.61;78.63;63303.53;5084674;28;20192;-76
2022/07/12 02:47:50;;;;;;;2.20;2.05;;;;;;;12.57;79.14;63294.25;5085895;28;20235;-77
2022/07/12 02:50:17;;;;;;;27.17;20.23;;;;;;;12.56;80.43;63296.28;5081454;28;20231;-76
2022/07/12 02:52:44;;;;;;;7.38;5.45;;;;;;;12.57;80.83;63294.25;5064225;28;20190;-75
2022/07/12 02:55:11;;;;;;;3.47;2.95;;;;;;;12.55;82.02;63297.28;5083976;28;20204;-76
2022/07/12 02:57:38;;;;;;;6.25;4.72;;;;;;;12.52;82.33;63294.72;5088703;28;20216;-77
2022/07/12 03:00:06;;;;;;;22.20;16.08;;;;;;;12.48;82.79;63288.00;5083884;28;20194;-75
2022/07/12 03:02:33;;;;;;;14.18;10.25;;;;;;;12.49;82.51;63293.63;5085798;28;20201;-76
2022/07/12 03:05:01;;;;;;;6.85;5.45;;;;;;;12.50;81.38;63289.56;5084622;28;20197;-76
2022/07/12 03:07:28;;;;;;;5.40;2.22;;;;;;;12.52;81.05;63289.06;5084117;28;20532;-75
2022/07/12 03:09:55;;;;;;;2.97;2.78;;;;;;;12.54;81.55;63296.78;5075178;28;20208;-76
2022/07/12 03:12:22;;;;;;;2.10;2.00;;;;;;;12.60;81.73;63299.91;5076814;28;20266;-75
2022/07/12 03:14:49;;;;;;;2.25;2.10;;;;;;;12.65;81.30;63305.09;5085614;28;20200;-76
2022/07/12 03:17:16;;;;;;;5.28;2.33;;;;;;;12.64;80.82;63304.59;5084551;28;20230;-75
2022/07/12 03:19:42;;;;;;;2.75;2.58;;;;;;;12.75;81.07;63316.00;5078186;28;20223;-77
2022/07/12 03:22:10;;;;;;;2.50;2.30;;;;;;;12.80;81.79;63321.19;5079207;28;20550;-77
2022/07/12 03:24:37;;;;;;;8.85;6.10;;;;;;;12.94;81.92;63334.66;5063578;28;20261;-76
2022/07/12 03:27:05;;;;;;;4.03;3.72;;;;;;;13.05;83.06;63346.09;5074715;28;20295;-77
2022/07/12 03:29:32;;;;;;;4.35;3.95;;;;;;;13.12;83.24;63353.88;5087820;28;20230;-75
2022/07/12 03:31:58;;;;;;;2.95;2.67;;;;;;;13.18;80.60;63359.59;5086483;28;20485;-77
2022/07/12 03:34:26;;;;;;;24.52;16.05;;;;;;;13.25;83.08;63364.28;5083626;28;20556;-77
2022/07/12 03:36:52;;;;;;;3.83;3.42;;;;;;;13.35;81.36;63377.75;5080860;28;20220;-76
2022/07/12 03:39:21;;;;;;;3.17;2.85;;;;;;;13.23;82.24;63367.31;5083527;28;20212;-76
2022/07/12 03:41:51;;;;;;;3.20;2.90;;;;;;;13.15;83.63;63361.59;5084105;28;20277;-75
2022/07/12 03:44:19;;;;;;;4.40;2.45;;;;;;;13.17;83.90;63361.63;5083413;28;20239;-76
2022/07/12 03:46:47;;;;;;;2.17;2.08;;;;;;;13.16;86.64;63357.50;5082840;28;20533;-77
2022/07/12 03:49:14;;;;;;;2.25;2.15;;;;;;;13.23;85.66;63369.88;5083663;28;20203;-76
2022/07/12 03:51:41;;;;;;;2.83;2.63;;;;;;;13.18;86.50;63354.47;5083123;28;20247;-76
2022/07/12 03:54:09;;;;;;;2.53;2.33;;;;;;;13.29;89.09;63371.50;5080816;28;20513;-76
2022/07/12 03:59:22;;;;;;;2.30;2.20;;;;;;;13.37;86.14;63381.84;5063441;28;20185;-77
2022/07/12 04:01:49;;;;;;;3.40;2.33;;;;;;;13.49;86.50;63389.19;5064622;28;20251;-75
2022/07/12 04:04:16;;;;;;;2.42;2.17;;;;;;;13.54;85.39;63394.38;5074575;28;20197;-77
2022/07/12 04:06:52;;;;;;;3.63;2.63;;;;;;;13.42;80.64;63385.00;5088583;28;20236;-75
2022/07/12 04:09:20;;;;;;;2.38;2.22;;;;;;;13.57;80.89;63402.59;5090017;28;20197;-76
2022/07/12 04:11:48;;;;;;;2.70;2.60;;;;;;;13.59;79.82;63404.69;5086336;28;20216;-76
2022/07/12 04:14:16;;;;;;;3.63;2.40;;;;;;;13.71;79.71;63417.66;5084633;28;20231;-77
2022/07/12 04:16:43;;;;;;;2.75;2.28;;;;;;;13.67;78.95;63410.94;5088357;28;20262;-75
2022/07/12 04:19:10;;;;;;;2.95;2.22;;;;;;;13.78;78.63;63427.50;5087214;28;20448;-76
2022/07/12 04:21:37;;;;;;;3.13;2.63;;;;;;;13.74;77.62;63415.66;5083772;28;20225;-75
2022/07/12 04:24:06;;;;;;;3.30;2.45;;;;;;;13.84;75.27;63431.16;5083706;28;20200;-75
2022/07/12 04:26:33;;;;;;;4.35;2.40;;;;;;;13.85;74.33;63426.56;5084136;28;20219;-75
2022/07/12 04:29:01;;;;;;;2.63;2.50;;;;;;;13.88;74.73;63429.66;5085984;28;20230;-77
2022/07/12 04:31:28;;;;;;;4.00;2.78;;;;;;;13.84;75.56;63428.06;5081517;28;20221;-76
2022/07/12 04:33:55;;;;;;;4.68;2.90;;;;;;;13.87;78.11;63436.31;5088314;28;20215;-75
2022/07/12 04:36:22;;;;;;;5.40;3.40;;;;;;;13.86;82.04;63427.59;5090638;28;20287;-78
2022/07/12 04:38:48;;;;;;;6.57;4.35;;;;;;;13.84;83.66;63426.03;5089194;28;20207;-76
2022/07/12 04:41:16;;;;;;;4.63;4.10;;;;;;;13.80;82.17;63423.94;5082950;28;20204;-76
2022/07/12 04:43:42;;;;;;;9.95;5.63;;;;;;;13.90;79.77;63434.31;5086365;28;20197;-75
2022/07/12 04:46:11;;;;;;;6.95;4.95;;;;;;;13.93;81.35;63439.97;5087667;28;20224;-76
2022/07/12 04:48:38;;;;;;;6.07;4.57;;;;;;;13.98;81.04;63439.53;5085886;28;20262;-76
2022/07/12 04:51:05;;;;;;;7.65;4.72;;;;;;;13.69;82.07;63412.50;5068952;28;20229;-76
2022/07/12 04:53:32;;;;;;;10.93;5.30;;;;;;;13.96;82.27;63445.13;5067190;28;20407;-77
2022/07/12 04:55:59;;;;;;;5.32;4.20;;;;;;;14.10;83.03;63452.00;5066414;28;20224;-77
2022/07/12 04:58:27;;;;;;;6.30;4.07;;;;;;;13.92;80.79;63433.81;5070300;28;20197;-77
2022/07/12 05:00:54;;;;;;;3.83;3.53;;;;;;;14.06;80.69;63450.41;5082443;28;20220;-78
2022/07/12 05:03:26;;;;;;;7.68;4.05;;;;;;;14.25;80.26;63470.13;5086519;28;20192;-78
2022/07/12 05:05:54;;;;;;;5.80;3.60;;;;;;;14.51;78.58;63495.09;5086846;28;20217;-76
2022/07/12 05:08:21;;;;;;;4.00;3.35;;;;;;;14.58;77.00;63499.28;5079708;28;20221;-77
2022/07/12 05:10:48;;;;;;;9.88;3.35;;;;;;;14.38;75.99;63479.03;5085499;28;20429;-75
2022/07/12 05:13:15;;;;;;;4.82;2.60;;;;;;;14.47;74.98;63495.53;5086342;28;20196;-76
2022/07/12 05:15:42;;;;;;;5.72;2.95;;;;;;;14.51;75.40;63502.78;5086339;28;20220;-77
2022/07/12 05:18:13;;;;;;;3.55;3.20;;;;;;;14.66;73.39;63515.81;5072605;28;20215;-77
2022/07/12 05:20:41;;;;;;;4.20;3.15;;;;;;;14.87;71.82;63537.09;5085684;28;20228;-76
2022/07/12 05:23:08;;;;;;;4.95;2.75;;;;;;;15.06;70.50;63556.84;5086353;28;20196;-76
2022/07/12 05:25:36;;;;;;;6.05;2.70;;;;;;;15.28;70.55;63577.13;5081941;28;20228;-76
2022/07/12 05:28:03;;;;;;;4.03;2.72;;;;;;;15.42;69.59;63594.28;5085040;28;20251;-76
2022/07/12 05:30:30;;;;;;;3.30;2.42;;;;;;;15.64;68.95;63616.63;5084820;28;20238;-75
2022/07/12 05:32:57;;;;;;;5.15;2.05;;;;;;;15.73;67.52;63618.28;5086663;28;20505;-76
2022/07/12 05:35:23;;;;;;;4.30;2.90;;;;;;;15.74;66.73;63621.88;5075716;28;20201;-75
2022/07/12 05:37:52;;;;;;;2.42;2.33;;;;;;;15.67;67.08;63617.19;5080074;28;20200;-76
2022/07/12 05:40:19;;;;;;;3.55;3.13;;;;;;;15.63;67.32;63613.03;5085279;28;20493;-75
2022/07/12 05:42:46;;;;;;;4.20;2.83;;;;;;;15.64;66.39;63617.16;5084834;28;20197;-76
2022/07/12 05:45:13;;;;;;;5.05;3.13;;;;;;;15.66;67.96;63611.53;5065744;28;20203;-75
2022/07/12 05:48:02;;;;;;;3.20;2.85;;;;;;;15.58;67.23;63608.34;5090000;28;20236;-76
2022/07/12 05:50:29;;;;;;;7.93;2.70;;;;;;;15.74;68.49;63627.53;5096728;28;20284;-76
2022/07/12 05:55:42;;;;;;;4.10;3.20;;;;;;;16.08;65.96;63657.75;5081931;28;20229;-75
2022/07/12 05:58:08;;;;;;;3.47;3.17;;;;;;;16.04;65.15;63655.66;5088964;28;20200;-77
2022/07/12 06:00:35;;;;;;;3.63;3.40;;;;;;;16.08;67.44;63659.81;5086962;28;20216;-77
2022/07/12 06:03:02;;;;;;;5.95;3.58;;;;;;;16.03;66.21;63657.19;5074568;28;20204;-76
2022/07/12 06:05:29;;;;;;;5.85;3.15;;;;;;;15.97;64.88;63648.38;5085995;28;20216;-76
2022/07/12 06:07:57;;;;;;;4.38;4.10;;;;;;;15.93;65.53;63642.16;5084716;28;20234;-76
2022/07/12 06:10:24;;;;;;;3.72;3.50;;;;;;;16.22;66.59;63674.38;5069089;28;20295;-76
2022/07/12 06:12:51;;;;;;;7.30;3.80;;;;;;;16.33;65.38;63683.25;5086666;28;20223;-75
2022/07/12 06:15:18;;;;;;;4.22;3.17;;;;;;;16.43;62.84;63696.22;5086045;28;20251;-76
2022/07/12 06:17:45;;;;;;;5.00;3.97;;;;;;;16.53;62.57;63706.13;5090754;28;20199;-75
2022/07/12 06:20:13;;;;;;;8.45;4.07;;;;;;;16.39;64.14;63694.63;5088472;28;20203;-76
2022/07/12 06:22:40;;;;;;;7.78;3.30;;;;;;;16.57;62.26;63712.84;5087955;28;20199;-79
2022/07/12 06:25:09;;;;;;;6.63;3.35;;;;;;;16.58;62.04;63713.91;5087477;28;20274;-75
2022/07/12 06:27:36;;;;;;;6.65;3.28;;;;;;;16.56;62.67;63712.34;5084988;28;20219;-77
2022/07/12 06:30:04;;;;;;;4.18;3.53;;;;;;;16.86;60.38;63746.13;5080143;28;20202;-77
2022/07/12 06:32:31;;;;;;;8.15;3.55;;;;;;;17.15;61.83;63776.28;5081172;28;20454;-77
2022/07/12 06:34:58;;;;;;;4.63;3.40;;;;;;;17.19;61.80;63777.91;5078370;28;20204;-76
2022/07/12 06:37:25;;;;;;;3.53;2.97;;;;;;;17.14;58.62;63772.16;5080535;28;20323;-75
2022/07/12 06:39:52;;;;;;;5.78;2.53;;;;;;;17.26;57.47;63784.66;5071085;28;20196;-75
2022/07/12 06:42:20;;;;;;;2.90;2.60;;;;;;;17.36;56.25;63792.50;5081069;28;20302;-75
2022/07/12 06:44:46;;;;;;;3.10;2.83;;;;;;;17.48;57.79;63809.66;5070115;28;20213;-76
2022/07/12 06:47:13;;;;;;;4.70;3.65;;;;;;;17.38;58.47;63797.16;5067806;28;20257;-75
2022/07/12 06:49:40;;;;;;;6.10;2.60;;;;;;;17.54;56.65;63808.69;5076902;28;20238;-75
2022/07/12 06:52:07;;;;;;;1.80;1.40;;;;;;;17.27;51.44;63788.78;5081764;28;20219;-75
2022/07/12 06:54:34;;;;;;;1.75;1.65;;;;;;;17.32;52.61;63788.84;5068992;28;20200;-76
2022/07/12 06:57:02;;;;;;;1.95;1.40;;;;;;;17.38;52.56;63799.72;5063777;28;20217;-74
2022/07/12 06:59:30;;;;;;;2.03;1.00;;;;;;;17.58;52.46;63814.91;5064126;28;20205;-76
2022/07/12 07:01:58;;;;;;;1.77;1.55;;;;;;;17.51;52.56;63808.16;5064567;28;20436;-77
2022/07/12 07:04:25;;;;;;;6.60;1.63;;;;;;;17.54;51.96;63815.88;5082353;28;20192;-75
2022/07/12 07:06:58;;;;;;;2.15;1.95;;;;;;;17.69;49.57;63824.31;5076748;28;20302;-75
2022/07/12 07:09:41;;;;;;;2.95;1.52;;;;;;;17.83;49.29;63841.47;5089911;28;20228;-75
2022/07/12 07:12:11;;;;;;;2.03;1.27;;;;;;;17.76;50.22;63834.16;5082986;28;20216;-75
2022/07/12 07:14:46;;;;;;;3.63;1.23;;;;;;;17.79;50.64;63839.88;5091199;28;20223;-75
2022/07/12 07:17:19;;;;;;;1.33;1.10;;;;;;;18.06;49.32;63865.41;5092371;28;20219;-77
2022/07/12 07:19:46;;;;;;;2.08;1.13;;;;;;;18.21;48.81;63880.50;5089621;28;20227;-78
2022/07/12 07:22:13;;;;;;;2.38;1.50;;;;;;;18.22;47.82;63881.56;5088705;28;20261;-76
2022/07/12 07:24:48;;;;;;;1.60;1.48;;;;;;;17.89;47.83;63849.75;5084893;28;20203;-75
2022/07/12 07:27:16;;;;;;;3.33;1.60;;;;;;;17.95;50.93;63850.84;5084095;28;20209;-76
2022/07/12 07:32:29;;;;;;;1.20;1.20;;;;;;;18.36;49.02;63896.16;5087156;28;20226;-74
2022/07/12 07:34:56;;;;;;;5.75;2.38;;;;;;;18.54;48.97;63912.34;5086137;28;20492;-75
2022/07/12 07:37:23;;;;;;;12.57;2.10;;;;;;;18.46;47.73;63903.50;5093241;28;20241;-74
2022/07/12 07:39:50;;;;;;;3.08;1.10;;;;;;;18.75;45.71;63936.81;5091323;28;20207;-75
2022/07/12 07:42:17;;;;;;;9.13;1.73;;;;;;;18.95;44.76;63957.66;5096082;28;20216;-76
2022/07/12 07:44:45;;;;;;;1.15;1.15;;;;;;;19.07;43.44;63969.66;5092782;28;20497;-76
2022/07/12 07:47:20;;;;;;;3.47;1.20;;;;;;;18.81;44.38;63939.97;5088421;28;20215;-75
2022/07/12 07:49:52;;;;;;;3.70;1.40;;;;;;;18.25;46.20;63887.78;5087153;28;20264;-75
2022/07/12 07:52:19;;;;;;;2.03;1.20;;;;;;;18.49;45.56;63912.28;5093383;28;20290;-75
2022/07/12 07:54:46;;;;;;;0.90;0.90;;;;;;;18.84;44.44;63953.41;5096206;28;20203;-75
2022/07/12 07:57:12;;;;;;;2.15;1.25;;;;;;;18.72;45.38;63938.84;5092762;28;20236;-75
2022/07/12 07:59:40;;;;;;;1.45;1.08;;;;;;;18.66;44.14;63929.47;5087806;28;20205;-74
2022/07/12 08:02:12;;;;;;;8.40;1.48;;;;;;;18.75;44.28;63938.88;5094001;28;20211;-78
2022/07/12 08:04:43;;;;;;;2.15;1.23;;;;;;;18.18;44.00;63879.97;5095096;28;20206;-78
2022/07/12 08:07:14;;;;;;;1.05;1.00;;;;;;;18.34;44.16;63894.06;5098780;28;20255;-78
2022/07/12 08:09:47;;;;;;;3.20;1.25;;;;;;;18.67;44.11;63925.38;5095924;28;20243;-74
2022/07/12 08:12:15;;;;;;;1.35;0.82;;;;;;;18.82;43.01;63944.13;5089829;28;20419;-75
2022/07/12 08:14:41;;;;;;;3.00;1.00;;;;;;;18.43;43.10;63903.97;5102608;28;20488;-77
2022/07/12 08:17:10;;;;;;;3.05;1.15;;;;;;;18.61;43.41;63924.81;5098110;28;20235;-78
2022/07/12 08:19:37;;;;;;;1.00;1.00;;;;;;;19.08;41.97;63976.38;5092116;28;20226;-77
2022/07/12 08:22:04;;;;;;;2.30;1.10;;;;;;;19.53;41.67;64017.63;5093575;28;20223;-76
2022/07/12 08:24:31;;;;;;;3.90;1.05;;;;;;;19.74;39.80;64036.44;5091488;28;20189;-75
2022/07/12 08:26:58;;;;;;;0.88;0.70;;;;;;;19.49;41.63;64011.41;5100116;28;20528;-77
2022/07/12 08:29:25;;;;;;;4.50;1.08;;;;;;;19.41;44.30;63999.97;5093583;28;20226;-77
2022/07/12 08:31:52;;;;;;;2.80;1.15;;;;;;;19.35;42.90;63998.84;5094512;28;20329;-77
2022/07/12 08:34:20;;;;;;;11.65;1.92;;;;;;;19.41;43.10;64008.22;5094118;28;20203;-77
2022/07/12 08:36:47;;;;;;;3.65;1.25;;;;;;;19.60;42.61;64029.59;5093495;28;20215;-76
2022/07/12 08:39:14;;;;;;;12.15;1.35;;;;;;;19.66;42.85;64028.09;5095280;28;20191;-76
2022/07/12 08:41:41;;;;;;;3.65;1.25;;;;;;;19.86;41.82;64051.53;5091535;28;20231;-76
2022/07/12 08:44:08;;;;;;;2.47;1.20;;;;;;;19.93;42.20;64061.94;5093923;28;20250;-77
2022/07/12 08:46:35;;;;;;;1.95;0.93;;;;;;;20.09;41.05;64080.69;5093336;28;20306;-77
2022/07/12 08:49:06;;;;;;;1.20;1.00;;;;;;;19.41;41.46;64007.72;5094386;28;20219;-77
2022/07/12 08:51:34;;;;;;;1.00;0.80;;;;;;;19.05;41.79;63968.06;5093533;28;20269;-76
2022/07/12 08:54:08;;;;;;;2.80;0.95;;;;;;;19.36;40.80;64000.41;5090023;28;20250;-75
2022/07/12 08:56:39;;;;;;;2.50;1.15;;;;;;;19.32;42.09;64000.91;5090063;28;20216;-77
2022/07/12 08:59:17;;;;;;;1.67;0.80;;;;;;;19.41;41.51;64005.13;5094376;28;20209;-77
2022/07/12 09:01:49;;;;;;;1.90;1.33;;;;;;;19.34;40.54;64003.53;5091779;28;20219;-77
2022/07/12 09:04:18;;;;;;;0.52;0.52;;;;;;;19.50;39.79;64015.03;5089811;28;20493;-77
2022/07/12 09:06:47;;;;;;;6.22;0.82;;;;;;;19.35;40.04;63998.84;5072265;28;20224;-76
2022/07/12 09:09:27;;;;;;;1.58;0.77;;;;;;;19.71;40.41;64038.47;5077845;28;20286;-77
2022/07/12 09:11:54;;;;;;;3.30;1.17;;;;;;;19.74;39.24;64042.13;5079668;28;20219;-76
2022/07/12 09:14:21;;;;;;;1.85;0.80;;;;;;;19.94;40.63;64062.47;5085420;28;20504;-78
2022/07/12 09:16:59;;;;;;;0.60;0.57;;;;;;;20.63;38.21;64131.91;5082544;28;20255;-76
2022/07/12 09:19:26;;;;;;;1.48;1.48;;;;;;;20.69;37.14;64138.69;5077517;28;20527;-78
2022/07/12 09:21:55;;;;;;;1.65;1.20;;;;;;;20.97;37.71;64169.47;5069086;28;20220;-77
2022/07/12 09:24:25;;;;;;;1.52;0.70;;;;;;;21.33;36.53;64207.09;5069575;28;20504;-77
2022/07/12 09:26:57;;;;;;;1.45;1.17;;;;;;;21.32;35.34;64206.56;5071544;28;20216;-77
2022/07/12 09:29:25;;;;;;;1.38;0.82;;;;;;;21.21;36.43;64191.97;5070501;28;20228;-77
2022/07/12 09:37:25;;;;;;;2.00;0.77;;;;;;;21.11;37.10;64182.03;5069519;28;20256;-76
2022/07/12 09:39:53;;;;;;;1.52;0.93;;;;;;;20.63;36.75;64131.91;5076098;28;20200;-77
2022/07/12 09:42:21;;;;;;;1.42;1.02;;;;;;;20.24;37.34;64088.63;5065402;28;20259;-76
2022/07/12 09:44:50;;;;;;;0.85;0.77;;;;;;;20.28;36.40;64092.78;5067048;28;20204;-76
2022/07/12 09:47:17;;;;;;;0.70;0.70;;;;;;;20.58;36.26;64131.88;5080966;28;20239;-77
2022/07/12 09:49:44;;;;;;;0.50;0.50;;;;;;;20.80;36.45;64149.13;5085516;28;20295;-78
2022/07/12 09:52:21;;;;;;;1.13;0.98;;;;;;;20.76;36.99;64145.47;5086705;28;20268;-77
2022/07/12 09:54:52;;;;;;;0.60;0.60;;;;;;;20.59;36.15;64128.25;5085484;28;20196;-76
2022/07/12 09:57:22;;;;;;;4.20;1.13;;;;;;;20.63;37.40;64132.44;5083508;28;20216;-76
2022/07/12 09:59:51;;;;;;;0.85;0.85;;;;;;;20.36;37.93;64106.81;5085145;28;20202;-76
2022/07/12 10:02:19;;;;;;;1.35;0.75;;;;;;;20.38;37.28;64111.00;5085677;28;20216;-76
2022/07/12 10:04:48;;;;;;;0.75;0.68;;;;;;;20.52;37.01;64123.53;5085223;28;20196;-77
2022/07/12 10:07:16;;;;;;;1.80;0.63;;;;;;;20.21;36.01;64091.19;5080290;28;20216;-77
2022/07/12 10:09:43;;;;;;;5.10;1.13;;;;;;;20.45;38.62;64113.09;5084586;28;20239;-77
2022/07/12 10:12:13;;;;;;;0.80;0.80;;;;;;;20.88;35.58;64160.06;5074750;28;20216;-76
2022/07/12 10:14:42;;;;;;;1.65;0.73;;;;;;;20.91;35.87;64165.78;5083630;28;20180;-76
2022/07/12 10:17:10;;;;;;;1.60;0.70;;;;;;;21.13;37.33;64183.59;5082998;28;20220;-76
2022/07/12 10:19:37;;;;;;;0.70;0.70;;;;;;;21.00;35.37;64172.63;5086155;28;20196;-77
2022/07/12 10:22:06;;;;;;;0.80;0.80;;;;;;;20.90;35.74;64160.09;5086263;28;20216;-76
2022/07/12 10:24:56;;;;;;;2.88;0.80;;;;;;;21.07;35.36;64180.44;5081476;28;20464;-76
2022/07/12 10:27:34;;;;;;;2.25;0.90;;;;;;;20.69;34.85;64143.34;5083904;28;20287;-76
2022/07/12 10:30:21;;;;;;;3.40;0.70;;;;;;;20.90;34.28;64157.50;5071107;28;20541;-78
2022/07/12 10:32:49;;;;;;;1.17;0.68;;;;;;;20.68;35.18;64139.72;5067540;28;20189;-76
2022/07/12 10:35:19;;;;;;;1.15;0.43;;;;;;;20.33;34.44;64101.13;5080717;28;20203;-76
2022/07/12 10:38:15;;;;;;;3.13;0.82;;;;;;;20.49;35.23;64123.00;5085158;28;20214;-75
2022/07/12 10:40:45;;;;;;;1.67;0.60;;;;;;;20.71;35.21;64140.25;5088359;28;20219;-76
2022/07/12 10:46:20;;;;;;;1.70;0.80;;;;;;;20.85;34.77;64154.34;5070425;28;20243;-75
2022/07/12 10:48:47;;;;;;;0.65;0.60;;;;;;;20.90;34.71;64157.00;5066487;28;20192;-75
2022/07/12 10:51:16;;;;;;;5.47;1.00;;;;;;;21.07;34.55;64179.94;5065114;28;20215;-77
2022/07/12 10:53:45;;;;;;;4.07;0.85;;;;;;;21.15;34.59;64188.81;5084034;28;20279;-75
2022/07/12 10:56:19;;;;;;;0.57;0.57;;;;;;;21.20;34.16;64190.91;5085360;28;20215;-76
2022/07/12 10:58:49;;;;;;;0.60;0.60;;;;;;;21.13;34.78;64189.31;5084679;28;20192;-76
2022/07/12 11:01:18;;;;;;;0.98;0.50;;;;;;;20.52;34.81;64126.13;5076012;28;20221;-75
2022/07/12 11:03:47;;;;;;;0.80;0.80;;;;;;;20.88;34.20;64158.00;5075271;28;20195;-75
2022/07/12 11:06:16;;;;;;;1.80;0.90;;;;;;;21.10;33.42;64185.66;5081604;28;20216;-77
2022/07/12 11:08:56;;;;;;;1.23;0.75;;;;;;;21.10;34.22;64181.00;5086268;28;20211;-77
2022/07/12 11:11:26;;;;;;;0.40;0.40;;;;;;;21.32;32.92;64209.16;5072283;28;20592;-77
2022/07/12 11:13:55;;;;;;;1.55;1.00;;;;;;;21.29;32.74;64205.50;5085227;28;20220;-78
2022/07/12 11:16:24;;;;;;;2.13;0.85;;;;;;;21.46;32.32;64218.59;5086968;28;20216;-77
2022/07/12 11:18:51;;;;;;;0.77;0.75;;;;;;;21.45;32.27;64212.34;5085152;28;20265;-76
2022/07/12 11:21:21;;;;;;;1.75;0.75;;;;;;;21.60;32.02;64233.22;5088861;28;20231;-79
2022/07/12 11:23:48;;;;;;;1.60;0.70;;;;;;;21.30;33.80;64207.06;5084403;28;20196;-77
2022/07/12 11:26:15;;;;;;;0.60;0.60;;;;;;;21.44;32.97;64213.91;5083484;28;20287;-77
2022/07/12 11:28:45;;;;;;;1.13;0.70;;;;;;;21.37;33.62;64206.59;5083771;28;20485;-77
2022/07/12 11:31:14;;;;;;;0.90;0.90;;;;;;;21.64;33.02;64234.28;5085252;28;20294;-77
2022/07/12 11:33:43;;;;;;;1.42;1.00;;;;;;;21.84;33.27;64257.78;5084574;28;20204;-77
2022/07/12 11:36:11;;;;;;;1.63;0.95;;;;;;;21.97;35.03;64279.16;5080043;28;20265;-77
2022/07/12 11:38:40;;;;;;;1.85;0.98;;;;;;;20.92;35.25;64167.34;5082982;28;20191;-75
2022/07/12 11:41:08;;;;;;;1.40;0.60;;;;;;;20.65;36.65;64134.00;5083312;28;20223;-77
2022/07/12 11:43:36;;;;;;;1.60;0.88;;;;;;;20.97;35.70;64166.88;5082925;28;20528;-76
2022/07/12 11:46:05;;;;;;;1.73;1.17;;;;;;;21.34;35.91;64208.66;5082335;28;20219;-77
2022/07/12 11:48:39;;;;;;;1.10;0.90;;;;;;;21.43;34.71;64217.53;5083369;28;20231;-75
2022/07/12 11:51:08;;;;;;;1.33;1.00;;;;;;;21.65;34.76;64238.44;5072825;28;20260;-78
2022/07/12 11:53:37;;;;;;;3.97;0.80;;;;;;;22.10;35.02;64290.16;5072041;28;20216;-78
2022/07/12 11:56:06;;;;;;;0.80;0.70;;;;;;;21.36;35.39;64205.03;5064582;28;20510;-75
2022/07/12 11:58:37;;;;;;;3.40;1.10;;;;;;;21.66;36.12;64242.06;5073855;28;20211;-75